Lago Argentino, Argentina
Current Conditions -  °F | °C
As of 3:00 AM on Friday 19 Dec 2014 (Local Time) from SAWG Reporting Station
Clear Clear  
Wind Chill: 27°   Ceiling: Unl
Heat Index: 36°   Visibility: 6mi
Dew Point: 32°   Wind: 13mph
Humidity: 87%   Direction: 270°W
Pressure: 29.06"   Gusts: NA
Location:  50.34°S, 72.25°W
Report Text: SAWG 190600Z 27011KT CAVOK 02/00 Q0984
Loading
Personal Weather Stations






























Interactive Weather Map New forecast layout! Learn more

10-Day Weather Forecast

Advertisements
Track Severe Weather on mobile